Portada
METAR-TAF:

METAR-TAF

Aeropuertos :

Aeropuerto Internacional Faleolo

Apia, Upolu, Samoa

latitud: 13-49S, longitud: 172-00W, altitud: 5 m

Observación

El informe se hizo hace 7 minutos, a las 15:00 UTC
Viento 4 kt del sur
Temperatura 25°C
Humedad 94%
Presión 1010 hPa
Visibilidad 10 km o más
Escasas nubes a una altura de 2800 ft

METAR: NSFA 191500Z 17004KT 9999 FEW028 25/24 Q1010

Hora: 04:07 (15:07 UTC)

Pronóstico

El informe se hizo hace 3 horas y 55 minutos, a las 11:12 UTC
Pronóstico válido del 19 a las 12 UTC al 20 a las 12 UTC
Viento 7 kt del este-sureste
Visibilidad 10 km o más
Nubes dispersas a una altura de 2000 ft
Probabilidad 40% :
Temporalmente
del 20 a las 00 UTC al 20 a las 06 UTC
Visibilidad: 5000 m
Escasas nubes a una altura de 1800 ft, Cumulonimbus.
tormenta, lluvia,

TAF: NSFA 191112Z 1912/2012 12007KT 9999 SCT020 PROB40 TEMPO 2000/2006 5000 TSRA FEW018CB

Observaciones y pronósticos meteorológicos de más de 4000 aeropuertos (mensajes METAR y TAF).

Los puntos amarillos y rojos representan las estaciones disponibles.

Ponga el ratón en el punto deseado para ver el nombre de la estación.

Haga clic para ver las observaciones y los pronósticos meteorológicos.

Para cambiar el mapa : haga clic en los botones verdes con una cruz de color negro para hacer un zoom, en el botón verde con un guión para alejar o en las flechas verdes para mapas adyacentes.


METAR-TAF: